Alverca, Portugal

10:12 AM WEST on September 02, 2014 (GMT +0100)
Lisboa - Forte da casa | Change Station
CLOSE
Current Station
Personal Weather Station
Location: Forte Da Casa, LISBOA
Elevation: 135 ft
Nearby Weather Stations

Elev 135 ft 38.87 °N, 9.06 °W | Updated 2 minutes ago

Partly Cloudy
Partly Cloudy
75.7 °F
Feels Like 78 °F
N
0.0
Wind Variable Wind from South
Gusts 0.0 mph

Today
High -- | Low -- °F
--% Chance of Precip.
Yesterday
High -- | Low -- °F
Precip. -- in
7:05 AM 8:05 PM
Waxing Crescent, 49% visible
Pressure 29.92 in
Visibility 6.2 miles
Clouds Few 1500 ft
Heat Index 78 °F
Dew Point 61 °F
Humidity 61%
Rainfall 0.00 in
Snow Depth Not available.
UV 4 out of 12
Pollen Not available.
Air Quality Not available.
Flu Activity Not available.
METAR LPPT 020900Z 33007KT 300V010 9999 FEW015 22/18 Q1013

More Conditions Fewer Conditions

Pressure 29.92 in
Visibility 6.2 miles
Clouds Few 1500 ft
Heat Index 78 °F
Dew Point 61 °F
Humidity 61%
Rainfall 0.00 in
Snow Depth Not available.
UV 4 out of 12
Pollen Not available.
Air Quality Not available.
Flu Activity Not available.
METAR LPPT 020900Z 33007KT 300V010 9999 FEW015 22/18 Q1013

More Conditions Fewer Conditions

10-Day Weather Forecast

Almanac

Astronomy

Sep. 02, 2014 Rise Set
Actual Time 7:05 AM WEST 8:05 PM WEST
Civil Twilight 6:38 AM WEST 8:32 PM WEST
Nautical Twilight 6:06 AM WEST 9:04 PM WEST
Astronomical Twilight 5:32 AM WEST 9:38 PM WEST
Moon 2:33 PM WEST 12:00 AM WEST
Length of Visible Light 13h 53m
Length of Day
12h 59m
Tomorrow will be 2m 26s shorter.
Waxing Crescent, 49% of the Moon is Illuminated
Today
Waxing Crescent
Sep 2
First Quarter
Sep 8
Full
Sep 15
Last Quarter
Sep 24
New

Yesterday's Extremes

Country Highs Country Lows

Community

WunderPhotos

Upload Photos

1,749,587 photos uploaded!

WunderBlogs® & News

Nearby

Snow Depth

Not available.

Earthquake Activity

City Distance Mag. Time & Date
No recent earthquake activity has been reported nearby.
Minimum magnitude displayed is 2.5.

Coastal Water Temperatures

Place Temperature
No Stations Reporting

Nearby Weather Stations